Overview Statistics Trail Chart Weather Telemetry Raw packets
 

This is the latest recevied weather packets stored in our database for station/object WS4FSC-7. If no packets are shown the sender has not sent any weather packets the latest 10 day(s).

<< 40 41 42 43 44 45 46 >>
Time Temp. Humidity Pressure Rain* Wind** Luminosity Snow
1788212510 29.44° C 74% 1014 hPa - - 48 W/m² -
1788212151 29.44° C 76% 1014 hPa - - 45 W/m² -
1788211972 30° C 75% 1014 hPa - - 45 W/m² -
1788211791 30° C 75% 1014 hPa - - 47 W/m² -
1788211431 30° C 76% 1014 hPa - - 50 W/m² -
1788210891 30° C 76% 1014 hPa - - 57 W/m² -
1788209991 30° C 76% 1014 hPa - - 101 W/m² -
1788209790 30° C 74% 1014 hPa - - 101 W/m² -
1788209630 30° C 74% 1014 hPa - - 101 W/m² -
1788208911 30° C 69% 1014 hPa - - 121 W/m² -
1788208882 30.56° C 70% 1014 hPa - - 133 W/m² -
1788208732 30.56° C 70% 1014 hPa - - 133 W/m² -
1788208011 29.44° C 73% 1014 hPa - - 106 W/m² -
1788207831 30° C 72% 1014 hPa - - 89 W/m² -
1788207291 30° C 72% 1014 hPa - - 124 W/m² -
1788207111 30.56° C 71% 1014 hPa - - 180 W/m² -
1788206932 30.56° C 73% 1014 hPa - - 379 W/m² -
1788206750 30° C 73% 1014 hPa - - 128 W/m² -
1788206030 31.11° C 74% 1014 hPa - - 784 W/m² -
1788205491 31.67° C 71% 1014 hPa - - 225 W/m² -
1788205311 31.67° C 71% 1014 hPa - - 275 W/m² -
1788204951 32.78° C 68% 1014 hPa - - 218 W/m² -
1788204232 31.11° C 72% 1014 hPa - - 488 W/m² -
1788203510 32.22° C 67% 1014 hPa - - 742 W/m² -
1788203151 32.22° C 68% 1014 hPa - - 920 W/m² -

* Rain since midnight (hover to see other rain measurements)
** Current wind speed in m/s (hover to see current wind gust speed)